createdAt,value
2022-09-14T00:02:24.876Z,30.79
2022-09-14T00:04:52.278Z,30.61
2022-09-14T00:07:19.578Z,30.80
2022-09-14T00:09:47.369Z,30.73
2022-09-14T00:12:14.576Z,30.80
2022-09-14T00:14:41.998Z,30.89
2022-09-14T00:17:09.189Z,30.95
2022-09-14T00:19:37.239Z,30.91
2022-09-14T00:22:12.760Z,30.88
2022-09-14T00:24:56.615Z,30.76
2022-09-14T00:27:27.551Z,30.86
2022-09-14T00:29:55.171Z,30.91
2022-09-14T00:32:25.356Z,30.72
2022-09-14T00:34:52.701Z,30.80
2022-09-14T00:37:20.307Z,30.68
2022-09-14T00:39:48.766Z,30.84
2022-09-14T00:42:18.362Z,30.95
2022-09-14T00:44:49.022Z,30.95
2022-09-14T00:47:17.731Z,30.90
2022-09-14T00:49:45.519Z,30.80
2022-09-14T00:52:28.513Z,30.98
2022-09-14T00:54:59.972Z,31.00
2022-09-14T00:57:28.964Z,30.90
2022-09-14T00:59:57.065Z,30.80
2022-09-14T01:02:26.238Z,30.83
2022-09-14T01:04:54.084Z,30.96
2022-09-14T01:07:30.538Z,30.84
2022-09-14T01:09:57.856Z,30.99
2022-09-14T01:12:44.240Z,30.84
2022-09-14T01:15:26.006Z,30.50
2022-09-14T01:18:15.594Z,30.92
2022-09-14T01:20:55.114Z,30.67
2022-09-14T01:23:34.395Z,30.81
2022-09-14T01:26:01.691Z,31.04
2022-09-14T01:28:42.393Z,30.93
2022-09-14T01:31:15.362Z,30.72
2022-09-14T01:33:49.298Z,30.61
2022-09-14T01:36:17.906Z,30.66
2022-09-14T01:38:48.214Z,30.73
2022-09-14T01:41:18.407Z,30.76
2022-09-14T01:43:51.922Z,30.64
2022-09-14T01:46:22.140Z,30.60
2022-09-14T01:48:56.434Z,30.49
2022-09-14T01:51:39.629Z,30.54
2022-09-14T01:54:12.767Z,30.74
2022-09-14T01:56:44.637Z,30.80
2022-09-14T01:59:17.162Z,30.84
2022-09-14T02:01:50.381Z,30.70
2022-09-14T02:04:34.634Z,30.60
2022-09-14T02:07:02.624Z,30.59
2022-09-14T02:09:29.820Z,30.98
2022-09-14T02:12:00.783Z,30.81
2022-09-14T02:14:29.107Z,30.94
2022-09-14T02:16:56.392Z,31.08
2022-09-14T02:19:25.508Z,30.89
2022-09-14T02:21:52.747Z,30.78
2022-09-14T02:24:20.789Z,30.89
2022-09-14T02:26:49.669Z,30.92
2022-09-14T02:29:17.165Z,31.00
2022-09-14T02:32:02.977Z,30.78
2022-09-14T02:34:33.112Z,30.82
2022-09-14T02:37:01.993Z,30.75
2022-09-14T02:39:45.799Z,30.84
2022-09-14T02:42:25.220Z,30.88
2022-09-14T02:44:55.223Z,30.78
2022-09-14T02:47:22.517Z,30.92
2022-09-14T02:49:58.724Z,30.75
2022-09-14T02:52:30.976Z,31.07
2022-09-14T02:55:07.012Z,30.98
2022-09-14T02:57:54.333Z,30.86
2022-09-14T03:00:21.676Z,30.66
2022-09-14T03:02:48.827Z,30.79
2022-09-14T03:05:16.108Z,31.00
2022-09-14T03:07:43.330Z,30.94
2022-09-14T03:10:10.633Z,30.97
2022-09-14T03:12:38.602Z,30.91
2022-09-14T03:15:06.262Z,30.85
2022-09-14T03:17:33.440Z,31.01
2022-09-14T03:20:00.888Z,30.96
2022-09-14T03:22:28.137Z,30.92
2022-09-14T03:24:55.324Z,31.06
2022-09-14T03:27:22.466Z,31.07
2022-09-14T03:29:49.881Z,30.97
2022-09-14T03:32:17.021Z,30.90
2022-09-14T03:34:44.212Z,30.89
2022-09-14T03:37:11.424Z,31.10
2022-09-14T03:39:39.361Z,30.98
2022-09-14T03:42:06.604Z,31.13
2022-09-14T03:44:34.104Z,31.01
2022-09-14T03:47:01.371Z,31.00
2022-09-14T03:49:28.720Z,31.01
2022-09-14T03:51:59.611Z,31.02
2022-09-14T03:54:28.032Z,31.06
2022-09-14T03:56:55.271Z,30.89
2022-09-14T03:59:22.544Z,31.14
2022-09-14T04:01:49.872Z,30.95
2022-09-14T04:04:17.286Z,31.14
2022-09-14T04:06:44.448Z,31.16
2022-09-14T04:09:11.724Z,31.14
2022-09-14T04:11:39.093Z,31.28
2022-09-14T04:14:07.763Z,31.25
2022-09-14T04:16:35.046Z,31.20
2022-09-14T04:19:02.744Z,31.25
2022-09-14T04:21:29.928Z,31.48
2022-09-14T04:24:14.249Z,31.23
2022-09-14T04:26:43.467Z,31.24
2022-09-14T04:29:11.449Z,31.24
2022-09-14T04:31:38.826Z,31.50
2022-09-14T04:34:06.265Z,31.34
2022-09-14T04:36:33.654Z,31.27
2022-09-14T04:39:02.185Z,31.37
2022-09-14T04:41:30.111Z,31.29
2022-09-14T04:43:57.952Z,31.31
2022-09-14T04:46:27.169Z,31.30
2022-09-14T04:48:54.563Z,31.29
2022-09-14T04:51:23.136Z,31.27
2022-09-14T04:53:51.604Z,31.31
2022-09-14T04:56:19.829Z,31.45
2022-09-14T04:58:51.640Z,31.28
2022-09-14T05:01:20.846Z,31.50
2022-09-14T05:03:48.364Z,31.33
2022-09-14T05:06:19.601Z,31.35
2022-09-14T05:08:47.515Z,31.35
2022-09-14T05:11:18.470Z,31.33
2022-09-14T05:13:49.789Z,31.21
2022-09-14T05:16:21.881Z,31.23
2022-09-14T05:18:50.004Z,31.29
2022-09-14T05:21:18.342Z,31.15
2022-09-14T05:23:45.965Z,31.19
2022-09-14T05:26:13.677Z,31.11
2022-09-14T05:28:41.051Z,31.45
2022-09-14T05:31:09.511Z,31.31
2022-09-14T05:33:37.018Z,31.17
2022-09-14T05:36:05.676Z,31.35
2022-09-14T05:38:33.823Z,31.32
2022-09-14T05:41:01.562Z,31.36
2022-09-14T05:43:29.226Z,31.38
2022-09-14T05:45:56.714Z,31.32
2022-09-14T05:48:24.161Z,31.34
2022-09-14T05:50:57.745Z,31.46
2022-09-14T05:53:25.185Z,31.24
2022-09-14T05:56:12.204Z,31.20
2022-09-14T05:58:40.448Z,31.27
2022-09-14T06:01:09.091Z,31.30
2022-09-14T06:03:36.527Z,31.40
2022-09-14T06:06:04.869Z,31.12
2022-09-14T06:08:32.607Z,31.19
2022-09-14T06:11:04.765Z,31.14
2022-09-14T06:13:32.137Z,31.09
2022-09-14T06:16:07.044Z,31.40
2022-09-14T06:18:35.271Z,31.48
2022-09-14T06:21:03.164Z,31.36
2022-09-14T06:23:31.084Z,31.57
2022-09-14T06:25:59.156Z,31.40
2022-09-14T06:28:26.921Z,31.30
2022-09-14T06:30:54.457Z,31.26
2022-09-14T06:33:22.088Z,31.17
2022-09-14T06:35:56.474Z,31.45
2022-09-14T06:38:24.177Z,31.40
2022-09-14T06:40:59.668Z,31.31
2022-09-14T06:43:27.864Z,31.15
2022-09-14T06:46:02.406Z,31.52
2022-09-14T06:48:30.942Z,31.30
2022-09-14T06:50:58.107Z,31.37
2022-09-14T06:53:25.738Z,31.38
2022-09-14T06:55:53.179Z,31.04
2022-09-14T06:58:20.620Z,30.98
2022-09-14T07:00:47.923Z,31.14
2022-09-14T07:03:15.274Z,31.09
2022-09-14T07:05:42.486Z,31.14
2022-09-14T07:08:12.241Z,31.04
2022-09-14T07:10:40.093Z,31.19
2022-09-14T07:13:07.302Z,31.16
2022-09-14T07:15:34.915Z,31.12
2022-09-14T07:18:02.069Z,31.15
2022-09-14T07:20:29.328Z,31.00
2022-09-14T07:22:56.603Z,31.22
2022-09-14T07:25:23.994Z,30.97
2022-09-14T07:27:51.146Z,31.22
2022-09-14T07:30:18.476Z,31.17
2022-09-14T07:32:45.639Z,31.22
2022-09-14T07:35:12.982Z,31.19
2022-09-14T07:37:40.243Z,31.64
2022-09-14T07:40:07.874Z,31.88
2022-09-14T07:42:35.119Z,31.83
2022-09-14T07:45:02.467Z,31.60
2022-09-14T07:47:29.691Z,31.56
2022-09-14T07:49:57.061Z,32.04
2022-09-14T07:52:24.318Z,32.10
2022-09-14T07:54:52.081Z,31.66
2022-09-14T07:57:26.693Z,31.62
2022-09-14T08:00:01.534Z,31.52
2022-09-14T08:02:39.010Z,31.53
2022-09-14T08:05:06.961Z,31.41
2022-09-14T08:07:34.753Z,31.45
2022-09-14T08:10:02.248Z,31.83
2022-09-14T08:12:29.819Z,31.90
2022-09-14T08:14:57.093Z,31.47
2022-09-14T08:17:24.226Z,31.63
2022-09-14T08:19:52.313Z,31.63
2022-09-14T08:22:19.671Z,31.52
2022-09-14T08:24:47.020Z,31.37
2022-09-14T08:27:17.151Z,31.39
2022-09-14T08:29:44.747Z,31.45
2022-09-14T08:32:12.739Z,31.36
2022-09-14T08:34:39.948Z,31.53
2022-09-14T08:37:07.205Z,31.41
2022-09-14T08:39:34.450Z,31.44
2022-09-14T08:42:02.692Z,31.31
2022-09-14T08:44:45.033Z,31.33
2022-09-14T08:47:15.019Z,31.41
2022-09-14T08:49:54.859Z,31.21
2022-09-14T08:52:25.146Z,31.28
2022-09-14T08:54:57.100Z,31.57
2022-09-14T08:57:40.788Z,31.32
2022-09-14T09:00:13.854Z,31.25
2022-09-14T09:02:49.015Z,31.24
2022-09-14T09:05:35.957Z,31.26
2022-09-14T09:08:21.959Z,31.37
2022-09-14T09:10:51.898Z,31.29
2022-09-14T09:13:21.586Z,31.34
2022-09-14T09:15:50.597Z,31.32
2022-09-14T09:18:17.902Z,31.53
2022-09-14T09:20:47.477Z,31.44
2022-09-14T09:23:16.142Z,31.56
2022-09-14T09:25:49.233Z,31.59
2022-09-14T09:28:16.916Z,31.45
2022-09-14T09:30:45.586Z,31.29
2022-09-14T09:33:18.629Z,31.50
2022-09-14T09:36:08.170Z,31.33
2022-09-14T09:38:35.776Z,31.50
2022-09-14T09:41:06.348Z,31.58
2022-09-14T09:43:49.070Z,31.36
2022-09-14T09:46:17.647Z,31.53
2022-09-14T09:48:45.682Z,31.47
2022-09-14T09:51:14.925Z,31.43
2022-09-14T09:53:47.649Z,31.33
2022-09-14T09:56:22.304Z,31.45
2022-09-14T09:58:51.893Z,31.26
2022-09-14T10:01:21.394Z,31.51
2022-09-14T10:04:05.986Z,31.45
2022-09-14T10:06:41.424Z,31.65
2022-09-14T10:09:20.135Z,31.47
2022-09-14T10:11:48.884Z,31.59
2022-09-14T10:14:21.655Z,31.56
2022-09-14T10:16:49.057Z,31.38
2022-09-14T10:19:22.927Z,31.57
2022-09-14T10:22:06.067Z,31.43
2022-09-14T10:24:35.265Z,31.62
2022-09-14T10:27:02.610Z,31.45
2022-09-14T10:29:35.238Z,31.60
2022-09-14T10:32:05.927Z,31.61
2022-09-14T10:34:33.915Z,31.98
2022-09-14T10:37:32.160Z,31.86
2022-09-14T10:40:12.843Z,31.97
2022-09-14T10:42:53.928Z,31.79
2022-09-14T10:45:35.758Z,31.98
2022-09-14T10:48:15.255Z,31.83
2022-09-14T10:51:02.943Z,31.76
2022-09-14T10:53:36.396Z,31.66
2022-09-14T10:56:17.272Z,31.86
2022-09-14T10:58:44.525Z,31.85
2022-09-14T11:01:20.470Z,31.76
2022-09-14T11:04:06.720Z,31.75
2022-09-14T11:06:40.513Z,31.68
2022-09-14T11:09:29.790Z,31.76
2022-09-14T11:11:56.984Z,31.68
2022-09-14T11:14:37.782Z,31.70
2022-09-14T11:17:23.916Z,31.77
2022-09-14T11:20:00.714Z,31.74
2022-09-14T11:22:47.013Z,31.77
2022-09-14T11:25:14.344Z,31.82
2022-09-14T11:27:48.995Z,31.82
2022-09-14T11:30:21.387Z,31.96
2022-09-14T11:32:51.859Z,32.12
2022-09-14T11:35:22.109Z,31.92
2022-09-14T11:37:53.051Z,31.85
2022-09-14T11:40:46.777Z,31.94
2022-09-14T11:43:17.627Z,31.97
2022-09-14T11:45:50.943Z,32.11
2022-09-14T11:48:44.396Z,31.89
2022-09-14T11:51:24.248Z,31.91
2022-09-14T11:53:51.832Z,31.64
2022-09-14T11:56:37.390Z,31.70
2022-09-14T11:59:07.225Z,31.81
2022-09-14T12:01:37.021Z,31.92
2022-09-14T12:04:07.294Z,31.98
2022-09-14T12:06:37.855Z,32.02
2022-09-14T12:09:14.091Z,31.79
2022-09-14T12:11:42.544Z,31.65
2022-09-14T12:14:13.580Z,31.83
2022-09-14T12:16:59.406Z,31.62
2022-09-14T12:19:27.783Z,31.65
2022-09-14T12:21:55.592Z,31.82
2022-09-14T12:24:23.561Z,31.63
2022-09-14T12:26:50.825Z,31.73
2022-09-14T12:29:29.282Z,31.59
2022-09-14T12:31:56.463Z,31.75
2022-09-14T12:34:25.432Z,31.74
2022-09-14T12:36:52.946Z,31.59
2022-09-14T12:39:20.965Z,31.52
2022-09-14T12:41:48.591Z,31.48
2022-09-14T12:44:35.791Z,31.62
2022-09-14T12:47:21.987Z,31.66
2022-09-14T12:49:49.225Z,31.75
2022-09-14T12:52:28.903Z,31.82
2022-09-14T12:55:02.135Z,31.54
2022-09-14T12:57:35.866Z,31.56
2022-09-14T13:00:06.497Z,31.63
2022-09-14T13:02:33.864Z,31.63
2022-09-14T13:05:03.206Z,31.57
2022-09-14T13:07:32.148Z,31.60
2022-09-14T13:10:00.346Z,31.61
2022-09-14T13:12:30.321Z,31.57
2022-09-14T13:15:05.512Z,31.83
2022-09-14T13:17:32.848Z,31.68
2022-09-14T13:20:02.550Z,31.74
2022-09-14T13:22:31.923Z,31.53
2022-09-14T13:25:00.423Z,31.50
2022-09-14T13:27:32.736Z,31.69
2022-09-14T13:30:19.942Z,31.76
2022-09-14T13:32:50.120Z,31.56
2022-09-14T13:35:17.560Z,31.48
2022-09-14T13:37:48.177Z,31.40
2022-09-14T13:40:15.866Z,31.81
2022-09-14T13:42:43.456Z,31.64
2022-09-14T13:45:13.130Z,31.68
2022-09-14T13:47:40.505Z,31.72
2022-09-14T13:50:08.131Z,31.66
2022-09-14T13:53:00.651Z,31.61
2022-09-14T13:55:23.875Z,31.67
2022-09-14T13:58:09.414Z,31.65
2022-09-14T14:00:54.824Z,31.62
2022-09-14T14:03:33.189Z,31.64
2022-09-14T14:06:20.721Z,31.59
2022-09-14T14:09:01.926Z,31.58
2022-09-14T14:11:31.495Z,31.64
2022-09-14T14:14:10.806Z,31.57
2022-09-14T14:16:38.247Z,31.68
2022-09-14T14:19:05.717Z,31.50
2022-09-14T14:21:33.549Z,31.40
2022-09-14T14:24:26.172Z,31.65
2022-09-14T14:26:56.973Z,31.63
2022-09-14T14:29:25.817Z,31.50
2022-09-14T14:31:54.964Z,31.60
2022-09-14T14:34:24.334Z,31.85
2022-09-14T14:36:52.079Z,31.47
2022-09-14T14:39:24.019Z,31.77
2022-09-14T14:41:51.800Z,31.67
2022-09-14T14:44:26.254Z,31.73
2022-09-14T14:46:54.092Z,32.01
2022-09-14T14:49:22.021Z,31.54
2022-09-14T14:51:49.747Z,31.47
2022-09-14T14:54:18.810Z,31.54
2022-09-14T14:56:47.376Z,31.63
2022-09-14T14:59:20.685Z,31.51
2022-09-14T15:01:48.458Z,31.79
2022-09-14T15:04:15.777Z,31.70
2022-09-14T15:06:43.127Z,31.67
2022-09-14T15:09:13.684Z,31.70
2022-09-14T15:11:41.161Z,31.68
2022-09-14T15:14:12.501Z,31.72
2022-09-14T15:16:39.801Z,31.76
2022-09-14T15:19:07.445Z,31.70
2022-09-14T15:21:34.966Z,31.63
2022-09-14T15:24:02.358Z,31.52
2022-09-14T15:26:29.699Z,31.72
2022-09-14T15:28:56.904Z,31.72
2022-09-14T15:31:24.357Z,31.71
2022-09-14T15:33:51.535Z,31.56
2022-09-14T15:36:34.625Z,31.38
2022-09-14T15:39:02.051Z,31.50
2022-09-14T15:41:29.246Z,31.47
2022-09-14T15:43:56.949Z,31.56
2022-09-14T15:46:24.169Z,31.46
2022-09-14T15:48:51.635Z,31.58
2022-09-14T15:51:19.775Z,31.47
2022-09-14T15:53:47.870Z,31.85
2022-09-14T15:56:15.825Z,31.77
2022-09-14T15:58:47.799Z,31.83
2022-09-14T16:01:16.678Z,31.50
2022-09-14T16:03:44.216Z,31.83
2022-09-14T16:06:12.328Z,31.65
2022-09-14T16:08:40.068Z,31.70
2022-09-14T16:11:08.177Z,31.97
2022-09-14T16:13:35.674Z,31.84
2022-09-14T16:16:07.089Z,31.68
2022-09-14T16:18:34.724Z,31.92
2022-09-14T16:21:08.871Z,31.94
2022-09-14T16:23:37.363Z,32.00
2022-09-14T16:26:10.290Z,31.74
2022-09-14T16:28:41.521Z,31.76
2022-09-14T16:31:10.323Z,31.71
2022-09-14T16:33:41.665Z,31.87
2022-09-14T16:36:10.303Z,31.75
2022-09-14T16:38:38.437Z,31.83
2022-09-14T16:41:06.081Z,32.01
2022-09-14T16:43:33.888Z,31.84
2022-09-14T16:46:08.872Z,31.68
2022-09-14T16:48:38.827Z,31.75
2022-09-14T16:51:06.780Z,31.89
2022-09-14T16:53:37.068Z,31.47
2022-09-14T16:56:05.811Z,31.67
2022-09-14T16:58:33.615Z,31.74
2022-09-14T17:01:20.515Z,31.68
2022-09-14T17:03:48.861Z,31.84
2022-09-14T17:06:18.703Z,31.74
2022-09-14T17:08:46.490Z,31.79
2022-09-14T17:11:14.321Z,31.85
2022-09-14T17:13:42.930Z,31.66
2022-09-14T17:16:14.244Z,31.70
2022-09-14T17:18:42.543Z,31.75
2022-09-14T17:21:12.229Z,31.71
2022-09-14T17:23:40.261Z,31.51
2022-09-14T17:26:08.964Z,31.74
2022-09-14T17:28:36.508Z,31.52
2022-09-14T17:31:05.167Z,31.71
2022-09-14T17:33:35.478Z,31.69
2022-09-14T17:36:04.186Z,31.75
2022-09-14T17:38:35.577Z,31.72
2022-09-14T17:41:10.190Z,31.56
2022-09-14T17:43:38.367Z,31.50
2022-09-14T17:46:06.581Z,31.70
2022-09-14T17:48:35.462Z,31.87
2022-09-14T17:51:09.942Z,31.53
2022-09-14T17:53:38.714Z,31.45
2022-09-14T17:56:07.238Z,31.56
2022-09-14T17:58:35.062Z,31.67
2022-09-14T18:01:06.767Z,31.82
2022-09-14T18:03:34.474Z,31.91
2022-09-14T18:06:02.147Z,31.89
2022-09-14T18:08:29.482Z,31.61
2022-09-14T18:10:56.669Z,31.56
2022-09-14T18:13:24.125Z,31.74
2022-09-14T18:15:55.084Z,31.60
2022-09-14T18:18:22.329Z,31.76
2022-09-14T18:20:49.529Z,31.69
2022-09-14T18:23:17.032Z,31.61
2022-09-14T18:25:44.456Z,31.72
2022-09-14T18:28:11.654Z,31.53
2022-09-14T18:30:43.445Z,31.35
2022-09-14T18:33:11.179Z,31.48
2022-09-14T18:35:38.532Z,31.44
2022-09-14T18:38:06.767Z,31.56
2022-09-14T18:40:37.100Z,31.55
2022-09-14T18:43:04.492Z,31.63
2022-09-14T18:45:34.054Z,31.61
2022-09-14T18:48:01.367Z,31.59
2022-09-14T18:50:31.244Z,31.75
2022-09-14T18:52:58.696Z,31.62
2022-09-14T18:55:25.912Z,31.53
2022-09-14T18:57:53.161Z,31.38
2022-09-14T19:00:20.379Z,31.24
2022-09-14T19:02:54.648Z,31.62
2022-09-14T19:05:22.885Z,31.40
2022-09-14T19:07:50.131Z,31.52
2022-09-14T19:10:18.012Z,31.55
2022-09-14T19:12:45.239Z,31.64
2022-09-14T19:15:12.775Z,31.38
2022-09-14T19:17:40.056Z,31.39
2022-09-14T19:20:08.479Z,31.47
2022-09-14T19:22:35.739Z,31.39
2022-09-14T19:25:05.435Z,31.36
2022-09-14T19:27:32.648Z,31.32
2022-09-14T19:30:01.170Z,31.37
2022-09-14T19:32:28.500Z,31.54
2022-09-14T19:34:55.797Z,31.43
2022-09-14T19:37:24.157Z,31.23
2022-09-14T19:39:51.494Z,31.42
2022-09-14T19:42:22.659Z,31.25
2022-09-14T19:44:51.813Z,31.46
2022-09-14T19:47:19.020Z,31.73
2022-09-14T19:49:46.333Z,31.53
2022-09-14T19:52:13.699Z,31.63
2022-09-14T19:54:40.900Z,31.66
2022-09-14T19:57:08.071Z,31.84
2022-09-14T19:59:35.433Z,31.86
2022-09-14T20:02:03.145Z,31.89
2022-09-14T20:04:30.466Z,31.71
2022-09-14T20:06:57.740Z,31.71
2022-09-14T20:09:25.380Z,31.64
2022-09-14T20:11:52.976Z,31.51
2022-09-14T20:14:21.257Z,31.33
2022-09-14T20:16:58.306Z,31.51
2022-09-14T20:19:28.629Z,31.57
2022-09-14T20:21:56.296Z,31.48
2022-09-14T20:24:25.799Z,31.67
2022-09-14T20:26:55.048Z,31.42
2022-09-14T20:29:23.114Z,31.35
2022-09-14T20:31:51.105Z,31.38
2022-09-14T20:34:22.392Z,31.14
2022-09-14T20:36:50.738Z,31.62
2022-09-14T20:39:18.344Z,31.47
2022-09-14T20:41:45.702Z,31.53
2022-09-14T20:44:13.981Z,31.68
2022-09-14T20:46:42.989Z,31.42
2022-09-14T20:49:14.040Z,31.48
2022-09-14T20:51:41.908Z,31.48
2022-09-14T20:54:11.385Z,31.52
2022-09-14T20:56:39.137Z,31.67
2022-09-14T20:59:07.321Z,31.39
2022-09-14T21:01:35.655Z,31.71
2022-09-14T21:04:04.954Z,31.74
2022-09-14T21:06:32.448Z,31.24
2022-09-14T21:09:01.028Z,31.52
2022-09-14T21:11:28.636Z,31.43
2022-09-14T21:13:57.485Z,31.19
2022-09-14T21:16:26.261Z,31.40
2022-09-14T21:18:55.356Z,31.35
2022-09-14T21:21:22.652Z,31.26
2022-09-14T21:23:50.498Z,31.12
2022-09-14T21:26:19.280Z,31.48
2022-09-14T21:28:46.658Z,31.54
2022-09-14T21:31:22.787Z,31.38
2022-09-14T21:33:51.769Z,31.28
2022-09-14T21:36:20.883Z,31.39
2022-09-14T21:38:52.065Z,31.35
2022-09-14T21:41:20.545Z,31.20
2022-09-14T21:43:47.979Z,31.46
2022-09-14T21:46:15.931Z,31.56
2022-09-14T21:48:43.245Z,31.35
2022-09-14T21:51:10.512Z,31.30
2022-09-14T21:53:37.685Z,31.10
2022-09-14T21:56:05.585Z,31.32
2022-09-14T21:58:33.045Z,31.39
2022-09-14T22:01:01.358Z,31.24
2022-09-14T22:03:29.516Z,31.58
2022-09-14T22:05:58.053Z,31.42
2022-09-14T22:08:26.056Z,31.37
2022-09-14T22:10:53.489Z,31.24
2022-09-14T22:13:21.077Z,31.34
2022-09-14T22:15:48.475Z,31.55
2022-09-14T22:18:15.743Z,31.56
2022-09-14T22:20:43.014Z,31.31
2022-09-14T22:23:10.726Z,31.35
2022-09-14T22:25:41.675Z,31.32
2022-09-14T22:28:09.048Z,31.30
2022-09-14T22:30:36.317Z,31.24
2022-09-14T22:33:04.356Z,31.41
2022-09-14T22:35:31.600Z,31.42
2022-09-14T22:37:58.939Z,31.47
2022-09-14T22:40:26.218Z,31.39
2022-09-14T22:42:53.478Z,31.24
2022-09-14T22:45:20.717Z,31.16
2022-09-14T22:47:48.076Z,31.36
2022-09-14T22:50:15.351Z,31.40
2022-09-14T22:52:42.902Z,31.32
2022-09-14T22:55:10.196Z,31.40
2022-09-14T22:57:37.897Z,31.28
2022-09-14T23:00:07.950Z,31.00
2022-09-14T23:02:35.516Z,31.25
2022-09-14T23:05:03.916Z,31.21
2022-09-14T23:07:31.305Z,31.28
2022-09-14T23:09:59.001Z,31.22
2022-09-14T23:12:26.520Z,31.16
2022-09-14T23:14:53.870Z,31.24
2022-09-14T23:17:23.470Z,31.45
2022-09-14T23:19:50.992Z,31.39
2022-09-14T23:22:18.252Z,31.24
2022-09-14T23:24:46.198Z,31.20
2022-09-14T23:27:13.527Z,31.51
2022-09-14T23:29:40.797Z,31.57
2022-09-14T23:32:08.081Z,31.31
2022-09-14T23:34:35.643Z,31.07
2022-09-14T23:37:02.878Z,31.16
2022-09-14T23:39:30.431Z,31.20
2022-09-14T23:41:57.809Z,31.27
2022-09-14T23:44:25.221Z,31.04
2022-09-14T23:46:52.515Z,31.02
2022-09-14T23:49:19.779Z,31.46
2022-09-14T23:51:47.033Z,31.64
2022-09-14T23:54:14.458Z,31.58
2022-09-14T23:56:41.605Z,31.35
2022-09-14T23:59:11.104Z,31.24
